createdAt,value
2022-10-16T00:00:20.982Z,101523.48
2022-10-16T00:02:51.378Z,101521.49
2022-10-16T00:05:20.549Z,101523.48
2022-10-16T00:07:50.232Z,101531.91
2022-10-16T00:10:19.918Z,101527.34
2022-10-16T00:12:49.690Z,101532.27
2022-10-16T00:15:20.989Z,101528.24
2022-10-16T00:17:51.624Z,101528.52
2022-10-16T00:20:22.357Z,101525.44
2022-10-16T00:22:52.286Z,101528.16
2022-10-16T00:25:21.686Z,101528.16
2022-10-16T00:27:52.691Z,101524.95
2022-10-16T00:30:25.015Z,101528.93
2022-10-16T00:32:54.826Z,101521.91
2022-10-16T00:35:25.204Z,101529.24
2022-10-16T00:37:54.456Z,101525.30
2022-10-16T00:40:24.238Z,101535.44
2022-10-16T00:42:53.926Z,101532.00
2022-10-16T00:45:22.934Z,101533.12
2022-10-16T00:47:52.891Z,101533.27
2022-10-16T00:50:31.893Z,101540.78
2022-10-16T00:53:02.224Z,101538.66
2022-10-16T00:55:35.039Z,101536.94
2022-10-16T00:58:05.694Z,101542.63
2022-10-16T01:00:35.849Z,101547.97
2022-10-16T01:03:08.655Z,101551.58
2022-10-16T01:05:46.475Z,101552.70
2022-10-16T01:08:28.719Z,101555.42
2022-10-16T01:11:03.194Z,101551.08
2022-10-16T01:13:42.100Z,101550.85
2022-10-16T01:16:17.005Z,101553.47
2022-10-16T01:18:51.148Z,101553.50
2022-10-16T01:21:30.996Z,101546.58
2022-10-16T01:24:26.884Z,101551.38
2022-10-16T01:27:19.769Z,101552.74
2022-10-16T01:30:04.132Z,101560.16
2022-10-16T01:32:50.421Z,101559.56
2022-10-16T01:35:32.019Z,101562.77
2022-10-16T01:38:28.119Z,101568.06
2022-10-16T01:41:01.960Z,101566.84
2022-10-16T01:43:35.958Z,101571.80
2022-10-16T01:46:04.837Z,101568.13
2022-10-16T01:48:35.039Z,101576.03
2022-10-16T01:51:11.405Z,101577.03
2022-10-16T01:53:41.860Z,101574.94
2022-10-16T01:56:13.066Z,101577.29
2022-10-16T01:58:51.092Z,101579.99
2022-10-16T02:01:21.259Z,101571.98
2022-10-16T02:03:53.577Z,101575.32
2022-10-16T02:06:25.773Z,101574.22
2022-10-16T02:08:56.328Z,101577.56
2022-10-16T02:11:25.831Z,101582.98
2022-10-16T02:13:59.026Z,101580.14
2022-10-16T02:16:43.253Z,101587.66
2022-10-16T02:19:16.068Z,101589.02
2022-10-16T02:21:55.632Z,101585.08
2022-10-16T02:24:53.618Z,101581.27
2022-10-16T02:27:27.874Z,101597.19
2022-10-16T02:30:15.621Z,101586.69
2022-10-16T02:32:47.001Z,101585.96
2022-10-16T02:35:19.297Z,101594.23
2022-10-16T02:37:49.710Z,101593.86
2022-10-16T02:40:22.874Z,101597.07
2022-10-16T02:42:54.525Z,101593.63
2022-10-16T02:45:25.048Z,101603.37
2022-10-16T02:47:55.112Z,101596.36
2022-10-16T02:50:25.812Z,101598.08
2022-10-16T02:52:55.593Z,101601.78
2022-10-16T02:55:26.822Z,101605.36
2022-10-16T02:57:57.709Z,101602.64
2022-10-16T03:00:27.124Z,101612.02
2022-10-16T03:02:56.618Z,101620.16
2022-10-16T03:05:26.632Z,101617.08
2022-10-16T03:07:56.793Z,101616.08
2022-10-16T03:10:26.259Z,101618.43
2022-10-16T03:12:56.146Z,101620.53
2022-10-16T03:15:26.819Z,101623.50
2022-10-16T03:17:58.266Z,101621.04
2022-10-16T03:20:28.780Z,101614.02
2022-10-16T03:22:59.938Z,101621.79
2022-10-16T03:25:29.738Z,101628.20
2022-10-16T03:27:58.768Z,101630.42
2022-10-16T03:30:29.435Z,101626.36
2022-10-16T03:32:58.735Z,101626.48
2022-10-16T03:35:28.773Z,101628.45
2022-10-16T03:37:58.116Z,101636.35
2022-10-16T03:40:27.867Z,101631.30
2022-10-16T03:42:57.940Z,101631.54
2022-10-16T03:45:28.199Z,101635.48
2022-10-16T03:47:59.002Z,101626.97
2022-10-16T03:50:28.302Z,101633.52
2022-10-16T03:52:58.008Z,101630.06
2022-10-16T03:55:28.409Z,101628.34
2022-10-16T03:57:58.073Z,101624.89
2022-10-16T04:00:27.315Z,101627.23
2022-10-16T04:02:56.287Z,101629.83
2022-10-16T04:05:26.134Z,101629.95
2022-10-16T04:07:56.525Z,101635.50
2022-10-16T04:10:26.793Z,101635.62
2022-10-16T04:12:56.706Z,101635.88
2022-10-16T04:15:27.509Z,101638.34
2022-10-16T04:17:57.027Z,101639.81
2022-10-16T04:20:26.462Z,101632.55
2022-10-16T04:22:55.867Z,101634.14
2022-10-16T04:25:27.717Z,101643.02
2022-10-16T04:27:57.903Z,101638.95
2022-10-16T04:30:27.168Z,101637.84
2022-10-16T04:32:57.922Z,101648.07
2022-10-16T04:35:28.807Z,101653.86
2022-10-16T04:37:59.506Z,101648.69
2022-10-16T04:40:28.375Z,101663.61
2022-10-16T04:42:57.890Z,101665.95
2022-10-16T04:45:27.546Z,101669.03
2022-10-16T04:48:01.082Z,101671.73
2022-10-16T04:50:30.727Z,101675.81
2022-10-16T04:53:10.095Z,101681.36
2022-10-16T04:55:39.599Z,101682.47
2022-10-16T04:58:10.684Z,101688.01
2022-10-16T05:00:41.041Z,101685.42
2022-10-16T05:03:10.758Z,101686.41
2022-10-16T05:05:45.383Z,101691.09
2022-10-16T05:08:14.651Z,101694.66
2022-10-16T05:10:45.574Z,101699.23
2022-10-16T05:13:15.738Z,101705.27
2022-10-16T05:15:49.057Z,101702.18
2022-10-16T05:18:19.021Z,101708.34
2022-10-16T05:20:50.337Z,101709.83
2022-10-16T05:23:19.894Z,101715.13
2022-10-16T05:25:58.843Z,101722.16
2022-10-16T05:28:29.489Z,101718.20
2022-10-16T05:31:00.236Z,101724.98
2022-10-16T05:33:29.373Z,101727.69
2022-10-16T05:36:00.693Z,101735.21
2022-10-16T05:38:31.636Z,101738.04
2022-10-16T05:41:01.154Z,101741.73
2022-10-16T05:43:31.165Z,101744.84
2022-10-16T05:46:04.942Z,101749.77
2022-10-16T05:48:34.024Z,101749.63
2022-10-16T05:51:09.880Z,101752.83
2022-10-16T05:53:39.972Z,101757.38
2022-10-16T05:56:11.860Z,101753.78
2022-10-16T05:58:41.695Z,101756.36
2022-10-16T06:01:18.284Z,101758.20
2022-10-16T06:03:47.919Z,101764.47
2022-10-16T06:06:23.509Z,101768.40
2022-10-16T06:08:53.209Z,101772.69
2022-10-16T06:11:28.807Z,101771.58
2022-10-16T06:14:06.351Z,101776.13
2022-10-16T06:16:37.634Z,101776.47
2022-10-16T06:19:09.037Z,101776.31
2022-10-16T06:21:39.138Z,101775.30
2022-10-16T06:24:08.882Z,101779.84
2022-10-16T06:26:39.362Z,101780.55
2022-10-16T06:29:09.968Z,101781.23
2022-10-16T06:31:40.156Z,101787.14
2022-10-16T06:34:12.256Z,101790.33
2022-10-16T06:36:42.168Z,101795.13
2022-10-16T06:39:13.541Z,101795.77
2022-10-16T06:41:42.842Z,101794.50
2022-10-16T06:44:18.344Z,101797.31
2022-10-16T06:46:48.511Z,101801.36
2022-10-16T06:49:21.035Z,101802.19
2022-10-16T06:51:51.306Z,101794.97
2022-10-16T06:54:20.929Z,101795.80
2022-10-16T06:56:50.030Z,101798.33
2022-10-16T06:59:19.569Z,101795.56
2022-10-16T07:01:51.370Z,101800.33
2022-10-16T07:04:21.345Z,101797.81
2022-10-16T07:06:52.300Z,101798.35
2022-10-16T07:09:22.218Z,101793.72
2022-10-16T07:11:51.336Z,101792.52
2022-10-16T07:14:22.539Z,101789.47
2022-10-16T07:16:52.068Z,101799.52
2022-10-16T07:19:21.922Z,101797.09
2022-10-16T07:21:51.337Z,101793.81
2022-10-16T07:24:21.492Z,101800.06
2022-10-16T07:26:51.523Z,101801.61
2022-10-16T07:29:22.659Z,101808.22
2022-10-16T07:31:53.002Z,101807.65
2022-10-16T07:34:23.961Z,101811.03
2022-10-16T07:36:55.622Z,101809.45
2022-10-16T07:39:25.740Z,101806.37
2022-10-16T07:41:55.752Z,101808.52
2022-10-16T07:44:25.803Z,101811.36
2022-10-16T07:46:55.546Z,101812.03
2022-10-16T07:49:25.382Z,101808.34
2022-10-16T07:51:55.611Z,101802.23
2022-10-16T07:54:27.104Z,101801.76
2022-10-16T07:56:57.193Z,101790.89
2022-10-16T07:59:27.258Z,101793.13
2022-10-16T08:01:57.104Z,101793.20
2022-10-16T08:04:26.840Z,101799.45
2022-10-16T08:06:58.168Z,101802.84
2022-10-16T08:09:29.418Z,101798.16
2022-10-16T08:12:02.087Z,101801.33
2022-10-16T08:14:30.081Z,101794.39
2022-10-16T08:17:02.341Z,101796.28
2022-10-16T08:19:33.313Z,101792.63
2022-10-16T08:22:03.659Z,101790.45
2022-10-16T08:24:35.422Z,101792.94
2022-10-16T08:27:05.300Z,101797.34
2022-10-16T08:29:35.154Z,101800.44
2022-10-16T08:32:06.233Z,101803.74
2022-10-16T08:34:35.823Z,101801.91
2022-10-16T08:37:04.863Z,101798.66
2022-10-16T08:39:34.548Z,101800.09
2022-10-16T08:42:41.863Z,101791.55
2022-10-16T08:45:44.709Z,101786.44
2022-10-16T08:48:31.008Z,101794.73
2022-10-16T08:51:02.483Z,101797.00
2022-10-16T08:53:44.928Z,101799.30
2022-10-16T08:56:14.143Z,101794.91
2022-10-16T08:58:43.837Z,101794.42
2022-10-16T09:01:19.681Z,101798.56
2022-10-16T09:04:27.150Z,101802.34
2022-10-16T09:07:19.334Z,101796.34
2022-10-16T09:10:18.321Z,101799.10
2022-10-16T09:13:10.458Z,101793.27
2022-10-16T09:16:15.710Z,101787.78
2022-10-16T09:19:10.743Z,101791.22
2022-10-16T09:21:43.323Z,101797.05
2022-10-16T09:24:19.470Z,101802.20
2022-10-16T09:26:49.673Z,101798.09
2022-10-16T09:29:21.285Z,101799.80
2022-10-16T09:31:51.888Z,101793.28
2022-10-16T09:34:33.513Z,101794.31
2022-10-16T09:37:14.492Z,101788.48
2022-10-16T09:39:51.863Z,101801.70
2022-10-16T09:42:27.438Z,101788.99
2022-10-16T09:44:56.549Z,101782.30
2022-10-16T09:47:27.924Z,101795.69
2022-10-16T09:50:06.863Z,101784.02
2022-10-16T09:52:36.584Z,101776.27
2022-10-16T09:55:17.236Z,101766.64
2022-10-16T09:57:56.396Z,101766.51
2022-10-16T10:00:26.472Z,101769.56
2022-10-16T10:05:27.536Z,101766.65
2022-10-16T10:08:06.849Z,101760.30
2022-10-16T10:10:41.451Z,101755.98
2022-10-16T10:13:21.083Z,101753.41
2022-10-16T10:15:51.905Z,101761.33
2022-10-16T10:18:23.568Z,101742.45
2022-10-16T10:21:01.157Z,101731.98
2022-10-16T10:23:33.102Z,101725.97
2022-10-16T10:26:16.863Z,101728.89
2022-10-16T10:29:17.078Z,101719.48
2022-10-16T10:32:06.459Z,101717.42
2022-10-16T10:35:05.248Z,101712.44
2022-10-16T10:37:45.275Z,101708.50
2022-10-16T10:41:00.159Z,101717.59
2022-10-16T10:44:17.122Z,101719.65
2022-10-16T10:46:52.933Z,101716.22
2022-10-16T10:49:44.185Z,101707.45
2022-10-16T10:53:00.383Z,101716.04
2022-10-16T10:55:57.444Z,101723.42
2022-10-16T10:58:46.869Z,101720.32
2022-10-16T11:01:24.756Z,101722.20
2022-10-16T11:04:02.023Z,101718.94
2022-10-16T11:06:49.977Z,101722.20
2022-10-16T11:09:41.563Z,101726.84
2022-10-16T11:12:23.103Z,101727.19
2022-10-16T11:15:15.658Z,101725.13
2022-10-16T11:18:02.574Z,101729.76
2022-10-16T11:20:35.513Z,101725.98
2022-10-16T11:23:24.426Z,101739.03
2022-10-16T11:25:55.445Z,101739.70
2022-10-16T11:28:39.849Z,101742.45
2022-10-16T11:31:25.989Z,101744.00
2022-10-16T11:36:44.174Z,101742.63
2022-10-16T11:39:25.985Z,101740.73
2022-10-16T11:42:12.568Z,101746.39
2022-10-16T11:45:05.888Z,101743.81
2022-10-16T11:48:02.364Z,101740.38
2022-10-16T11:50:22.652Z,101729.91
2022-10-16T11:53:22.487Z,101734.19
2022-10-16T11:55:52.980Z,101731.10
2022-10-16T11:59:03.111Z,101727.33
2022-10-16T12:01:39.977Z,101734.72
2022-10-16T12:04:40.277Z,101732.48
2022-10-16T12:07:25.873Z,101731.80
2022-10-16T12:09:58.287Z,101734.19
2022-10-16T12:12:39.462Z,101741.06
2022-10-16T12:18:00.481Z,101748.61
2022-10-16T12:20:33.151Z,101740.53
2022-10-16T12:23:11.073Z,101745.34
2022-10-16T12:25:42.718Z,101738.98
2022-10-16T12:28:25.976Z,101741.72
2022-10-16T12:31:02.335Z,101734.52
2022-10-16T12:33:38.087Z,101740.87
2022-10-16T12:36:20.113Z,101745.50
2022-10-16T12:38:50.524Z,101736.92
2022-10-16T12:41:29.780Z,101738.97
2022-10-16T12:44:02.145Z,101736.56
2022-10-16T12:46:39.199Z,101740.69
2022-10-16T12:49:26.486Z,101737.77
2022-10-16T12:51:59.282Z,101740.34
2022-10-16T12:54:38.917Z,101739.49
2022-10-16T12:57:35.448Z,101737.94
2022-10-16T13:00:26.730Z,101733.30
2022-10-16T13:03:37.428Z,101722.47
2022-10-16T13:06:31.283Z,101718.36
2022-10-16T13:09:10.562Z,101721.78
2022-10-16T13:12:18.548Z,101723.84
2022-10-16T13:15:11.638Z,101715.96
2022-10-16T13:17:55.491Z,101714.59
2022-10-16T13:20:39.617Z,101727.48
2022-10-16T13:23:30.080Z,101726.27
2022-10-16T13:26:24.680Z,101717.51
2022-10-16T13:28:58.015Z,101712.35
2022-10-16T13:31:27.548Z,101707.03
2022-10-16T13:33:59.820Z,101700.86
2022-10-16T13:36:39.862Z,101701.20
2022-10-16T13:39:28.658Z,101693.12
2022-10-16T13:42:29.052Z,101686.27
2022-10-16T13:44:59.891Z,101687.97
2022-10-16T13:47:30.831Z,101679.73
2022-10-16T13:50:06.979Z,101676.47
2022-10-16T13:52:39.044Z,101677.84
2022-10-16T13:55:18.494Z,101668.56
2022-10-16T13:57:49.055Z,101669.08
2022-10-16T14:00:28.810Z,101664.78
2022-10-16T14:03:10.245Z,101670.26
2022-10-16T14:05:51.940Z,101668.17
2022-10-16T14:08:23.147Z,101669.03
2022-10-16T14:10:55.961Z,101670.24
2022-10-16T14:13:38.237Z,101681.93
2022-10-16T14:16:11.958Z,101683.32
2022-10-16T14:18:44.576Z,101687.80
2022-10-16T14:21:18.076Z,101691.08
2022-10-16T14:23:49.772Z,101698.99
2022-10-16T14:26:22.486Z,101696.77
2022-10-16T14:29:16.111Z,101703.48
2022-10-16T14:31:57.282Z,101708.30
2022-10-16T14:34:36.211Z,101704.70
2022-10-16T14:37:28.241Z,101721.88
2022-10-16T14:39:58.471Z,101720.83
2022-10-16T14:42:28.495Z,101714.11
2022-10-16T14:44:58.667Z,101720.80
2022-10-16T14:47:29.182Z,101722.17
2022-10-16T14:50:00.403Z,101728.52
2022-10-16T14:52:30.391Z,101738.64
2022-10-16T14:55:00.175Z,101746.19
2022-10-16T14:57:30.412Z,101753.03
2022-10-16T15:00:00.898Z,101765.02
2022-10-16T15:02:33.296Z,101765.98
2022-10-16T15:05:27.041Z,101775.89
2022-10-16T15:07:58.360Z,101774.81
2022-10-16T15:10:28.714Z,101784.36
2022-10-16T15:13:01.213Z,101789.46
2022-10-16T15:15:37.927Z,101780.84
2022-10-16T15:18:09.357Z,101780.08
2022-10-16T15:20:39.867Z,101779.69
2022-10-16T15:23:21.708Z,101786.58
2022-10-16T15:25:53.759Z,101783.57
2022-10-16T15:28:24.892Z,101787.91
2022-10-16T15:30:56.770Z,101800.76
2022-10-16T15:33:29.522Z,101805.45
2022-10-16T15:36:00.587Z,101797.69
2022-10-16T15:38:31.251Z,101794.01
2022-10-16T15:41:02.154Z,101794.28
2022-10-16T15:43:32.686Z,101783.45
2022-10-16T15:46:06.655Z,101784.73
2022-10-16T15:48:37.458Z,101781.72
2022-10-16T15:51:07.325Z,101774.22
2022-10-16T15:53:37.505Z,101764.05
2022-10-16T15:56:08.138Z,101768.10
2022-10-16T15:58:38.381Z,101770.08
2022-10-16T16:01:10.324Z,101771.75
2022-10-16T16:03:41.502Z,101770.03
2022-10-16T16:06:12.945Z,101772.92
2022-10-16T16:08:44.270Z,101760.72
2022-10-16T16:11:15.968Z,101755.20
2022-10-16T16:13:47.392Z,101742.20
2022-10-16T16:16:18.413Z,101748.13
2022-10-16T16:18:50.324Z,101750.00
2022-10-16T16:21:19.447Z,101751.87
2022-10-16T16:23:48.587Z,101748.94
2022-10-16T16:26:31.776Z,101750.81
2022-10-16T16:29:03.208Z,101753.89
2022-10-16T16:31:35.065Z,101758.70
2022-10-16T16:34:05.433Z,101763.16
2022-10-16T16:36:36.960Z,101768.31
2022-10-16T16:39:05.945Z,101769.02
2022-10-16T16:41:35.130Z,101766.14
2022-10-16T16:44:06.549Z,101770.59
2022-10-16T16:46:36.686Z,101780.31
2022-10-16T16:49:06.082Z,101775.35
2022-10-16T16:51:39.761Z,101765.63
2022-10-16T16:54:08.398Z,101770.44
2022-10-16T16:56:38.347Z,101774.74
2022-10-16T16:59:08.273Z,101775.75
2022-10-16T17:01:37.966Z,101786.33
2022-10-16T17:04:07.198Z,101786.13
2022-10-16T17:06:36.363Z,101789.02
2022-10-16T17:09:07.131Z,101800.45
2022-10-16T17:11:36.275Z,101800.24
2022-10-16T17:14:08.879Z,101811.83
2022-10-16T17:16:38.448Z,101803.73
2022-10-16T17:19:09.636Z,101812.52
2022-10-16T17:21:40.900Z,101821.88
2022-10-16T17:24:10.822Z,101817.19
2022-10-16T17:26:41.395Z,101817.48
2022-10-16T17:29:12.106Z,101817.69
2022-10-16T17:31:41.404Z,101822.23
2022-10-16T17:34:12.230Z,101827.28
2022-10-16T17:36:46.436Z,101828.64
2022-10-16T17:39:17.701Z,101829.30
2022-10-16T17:41:48.145Z,101831.96
2022-10-16T17:44:21.482Z,101830.17
2022-10-16T17:46:52.567Z,101825.89
2022-10-16T17:49:22.509Z,101825.04
2022-10-16T17:51:53.046Z,101830.58
2022-10-16T17:54:22.839Z,101831.73
2022-10-16T17:56:52.090Z,101833.95
2022-10-16T17:59:22.805Z,101834.72
2022-10-16T18:01:53.218Z,101845.92
2022-10-16T18:04:22.889Z,101852.31
2022-10-16T18:06:52.604Z,101856.76
2022-10-16T18:09:22.850Z,101855.90
2022-10-16T18:11:54.343Z,101855.11
2022-10-16T18:14:25.038Z,101848.50
2022-10-16T18:16:54.652Z,101857.16
2022-10-16T18:19:25.560Z,101864.84
2022-10-16T18:21:58.959Z,101874.74
2022-10-16T18:24:28.919Z,101876.47
2022-10-16T18:26:58.753Z,101881.28
2022-10-16T18:29:28.618Z,101878.91
2022-10-16T18:31:59.182Z,101874.67
2022-10-16T18:34:27.921Z,101879.98
2022-10-16T18:37:02.545Z,101882.36
2022-10-16T18:39:31.983Z,101887.45
2022-10-16T18:42:01.361Z,101891.47
2022-10-16T18:44:30.913Z,101899.45
2022-10-16T18:47:02.003Z,101903.72
2022-10-16T18:49:32.295Z,101902.42
2022-10-16T18:52:03.087Z,101915.41
2022-10-16T18:54:32.181Z,101915.39
2022-10-16T18:57:02.953Z,101924.78
2022-10-16T18:59:32.693Z,101921.97
2022-10-16T19:02:02.982Z,101914.85
2022-10-16T19:04:33.569Z,101920.00
2022-10-16T19:07:03.257Z,101919.61
2022-10-16T19:09:32.811Z,101928.80
2022-10-16T19:12:03.371Z,101933.45
2022-10-16T19:14:34.733Z,101938.03
2022-10-16T19:19:52.873Z,101938.36
2022-10-16T19:22:30.890Z,101933.09
2022-10-16T19:25:02.791Z,101937.08
2022-10-16T19:27:32.337Z,101936.86
2022-10-16T19:30:02.117Z,101931.31
2022-10-16T19:32:34.108Z,101930.22
2022-10-16T19:35:05.200Z,101920.46
2022-10-16T19:37:35.170Z,101920.33
2022-10-16T19:40:05.675Z,101929.36
2022-10-16T19:42:36.437Z,101932.31
2022-10-16T19:45:06.952Z,101930.95
2022-10-16T19:47:37.980Z,101931.18
2022-10-16T19:50:09.853Z,101937.72
2022-10-16T19:52:39.290Z,101934.36
2022-10-16T19:55:09.268Z,101942.98
2022-10-16T19:57:38.513Z,101948.03
2022-10-16T20:00:09.607Z,101942.17
2022-10-16T20:02:40.472Z,101945.34
2022-10-16T20:05:09.670Z,101956.11
2022-10-16T20:07:41.022Z,101951.52
2022-10-16T20:10:10.297Z,101945.34
2022-10-16T20:12:40.052Z,101945.84
2022-10-16T20:15:11.140Z,101938.17
2022-10-16T20:17:41.390Z,101937.67
2022-10-16T20:20:12.029Z,101931.36
2022-10-16T20:22:42.913Z,101937.03
2022-10-16T20:25:15.533Z,101927.77
2022-10-16T20:27:45.569Z,101922.81
2022-10-16T20:30:14.710Z,101925.18
2022-10-16T20:32:46.065Z,101923.45
2022-10-16T20:35:16.003Z,101917.00
2022-10-16T20:37:48.839Z,101920.81
2022-10-16T20:40:19.349Z,101912.64
2022-10-16T20:42:49.494Z,101910.64
2022-10-16T20:45:19.167Z,101905.19
2022-10-16T20:47:48.711Z,101913.37
2022-10-16T20:50:20.454Z,101910.28
2022-10-16T20:52:50.620Z,101912.50
2022-10-16T20:55:20.216Z,101908.41
2022-10-16T20:57:49.439Z,101899.88
2022-10-16T21:00:18.535Z,101900.60
2022-10-16T21:02:52.929Z,101899.47
2022-10-16T21:05:23.137Z,101897.09
2022-10-16T21:07:53.215Z,101897.09
2022-10-16T21:10:23.229Z,101908.86
2022-10-16T21:12:55.115Z,101905.14
2022-10-16T21:15:24.833Z,101913.45
2022-10-16T21:17:55.816Z,101908.14
2022-10-16T21:20:25.277Z,101922.41
2022-10-16T21:22:54.948Z,101927.99
2022-10-16T21:25:24.884Z,101919.87
2022-10-16T21:27:54.790Z,101915.47
2022-10-16T21:30:24.036Z,101916.02
2022-10-16T21:32:54.407Z,101913.34
2022-10-16T21:35:25.915Z,101918.10
2022-10-16T21:37:54.825Z,101915.78
2022-10-16T21:40:25.233Z,101919.00
2022-10-16T21:42:55.459Z,101922.95
2022-10-16T21:45:25.492Z,101919.00
2022-10-16T21:50:24.315Z,101923.50
2022-10-16T21:52:54.198Z,101921.14
2022-10-16T21:55:25.630Z,101925.00
2022-10-16T21:57:56.869Z,101926.13
2022-10-16T22:00:26.763Z,101934.06
2022-10-16T22:02:58.358Z,101941.14
2022-10-16T22:05:27.363Z,101936.92
2022-10-16T22:07:56.476Z,101944.63
2022-10-16T22:10:25.762Z,101949.25
2022-10-16T22:12:57.560Z,101957.34
2022-10-16T22:15:29.305Z,101958.00
2022-10-16T22:17:58.809Z,101957.06
2022-10-16T22:20:28.698Z,101969.57
2022-10-16T22:22:58.014Z,101974.91
2022-10-16T22:25:27.747Z,101973.80
2022-10-16T22:27:57.440Z,101977.91
2022-10-16T22:30:27.023Z,101981.11
2022-10-16T22:32:58.549Z,101979.11
2022-10-16T22:35:29.408Z,101977.02
2022-10-16T22:37:58.996Z,101974.91
2022-10-16T22:40:29.068Z,101968.74
2022-10-16T22:42:59.135Z,101963.43
2022-10-16T22:45:30.736Z,101959.73
2022-10-16T22:48:01.025Z,101962.34
2022-10-16T22:50:30.331Z,101957.16
2022-10-16T22:52:59.387Z,101955.44
2022-10-16T22:55:29.277Z,101950.98
2022-10-16T22:57:59.261Z,101954.70
2022-10-16T23:00:28.655Z,101951.13
2022-10-16T23:02:58.120Z,101954.97
2022-10-16T23:05:27.749Z,101961.27
2022-10-16T23:07:59.598Z,101966.70
2022-10-16T23:10:30.581Z,101961.89
2022-10-16T23:13:00.330Z,101966.95
2022-10-16T23:15:29.055Z,101963.25
2022-10-16T23:17:59.321Z,101966.95
2022-10-16T23:20:29.532Z,101961.77
2022-10-16T23:22:59.498Z,101958.56
2022-10-16T23:25:29.748Z,101962.88
2022-10-16T23:27:59.074Z,101958.80
2022-10-16T23:30:28.439Z,101962.26
2022-10-16T23:32:57.605Z,101965.97
2022-10-16T23:35:27.344Z,101963.62
2022-10-16T23:37:58.037Z,101967.33
2022-10-16T23:40:27.556Z,101963.75
2022-10-16T23:42:57.585Z,101957.94
2022-10-16T23:45:26.868Z,101957.08
2022-10-16T23:47:57.450Z,101948.18
2022-10-16T23:50:28.711Z,101958.69
2022-10-16T23:52:57.812Z,101960.41
2022-10-16T23:55:29.355Z,101958.19
2022-10-16T23:57:59.585Z,101957.70
